createdAt,value
2017-09-05T00:00:49.682Z,984.3
2017-09-05T00:01:51.795Z,984.4
2017-09-05T00:02:54.046Z,984.4
2017-09-05T00:03:56.152Z,984.4
2017-09-05T00:04:58.252Z,984.4
2017-09-05T00:06:00.692Z,984.4
2017-09-05T00:07:02.824Z,984.4
2017-09-05T00:08:04.893Z,984.4
2017-09-05T00:09:07.071Z,984.4
2017-09-05T00:10:09.178Z,984.3
2017-09-05T00:11:11.630Z,984.4
2017-09-05T00:12:13.763Z,984.4
2017-09-05T00:13:15.872Z,984.4
2017-09-05T00:14:17.995Z,984.4
2017-09-05T00:15:20.286Z,984.4
2017-09-05T00:16:22.638Z,984.3
2017-09-05T00:17:24.805Z,984.3
2017-09-05T00:18:26.901Z,984.3
2017-09-05T00:19:29.018Z,984.3
2017-09-05T00:20:31.091Z,984.3
2017-09-05T00:21:33.560Z,984.2
2017-09-05T00:22:35.667Z,984.2
2017-09-05T00:23:37.729Z,984.3
2017-09-05T00:24:39.827Z,984.2
2017-09-05T00:25:41.903Z,984.2
2017-09-05T00:26:44.232Z,984.3
2017-09-05T00:27:46.270Z,984.2
2017-09-05T00:28:48.321Z,984.3
2017-09-05T00:29:50.360Z,984.3
2017-09-05T00:30:52.401Z,984.2
2017-09-05T00:31:54.885Z,984.2
2017-09-05T00:32:56.997Z,984.2
2017-09-05T00:33:59.056Z,984.3
2017-09-05T00:35:01.261Z,984.2
2017-09-05T00:36:03.347Z,984.3
2017-09-05T00:37:05.773Z,984.3
2017-09-05T00:38:07.915Z,984.2
2017-09-05T00:39:10.039Z,984.2
2017-09-05T00:40:12.159Z,984.1
2017-09-05T00:41:14.178Z,984.2
2017-09-05T00:42:16.634Z,984.2
2017-09-05T00:43:18.704Z,984.2
2017-09-05T00:44:20.819Z,984.2
2017-09-05T00:45:22.891Z,984.2
2017-09-05T00:46:24.949Z,984.2
2017-09-05T00:47:27.261Z,984.2
2017-09-05T00:48:29.380Z,984.2
2017-09-05T00:49:31.461Z,984.2
2017-09-05T00:50:33.564Z,984.2
2017-09-05T00:51:35.656Z,984.2
2017-09-05T00:52:38.094Z,984.2
2017-09-05T00:53:40.299Z,984.2
2017-09-05T00:54:42.394Z,984.1
2017-09-05T00:55:44.461Z,984.2
2017-09-05T00:56:46.571Z,984.1
2017-09-05T00:57:49.101Z,984.2
2017-09-05T00:58:51.193Z,984.1
2017-09-05T00:59:53.342Z,984.1
2017-09-05T01:00:55.490Z,984.2
2017-09-05T01:01:57.561Z,984.1
2017-09-05T01:02:59.903Z,984.2
2017-09-05T01:04:02.028Z,984.1
2017-09-05T01:05:04.128Z,984.1
2017-09-05T01:06:06.267Z,984.1
2017-09-05T01:07:08.424Z,984.1
2017-09-05T01:08:10.862Z,984.2
2017-09-05T01:09:13.012Z,984.2
2017-09-05T01:10:15.152Z,984.2
2017-09-05T01:11:17.206Z,984.2
2017-09-05T01:12:19.299Z,984.1
2017-09-05T01:13:21.758Z,984.1
2017-09-05T01:14:23.897Z,984.1
2017-09-05T01:15:26.061Z,984.2
2017-09-05T01:16:28.134Z,984.1
2017-09-05T01:17:30.252Z,984.2
2017-09-05T01:18:32.611Z,984.1
2017-09-05T01:19:34.652Z,984.1
2017-09-05T01:20:36.743Z,984.1
2017-09-05T01:21:39.005Z,984
2017-09-05T01:22:41.330Z,984
2017-09-05T01:23:43.727Z,984
2017-09-05T01:24:45.889Z,983.9
2017-09-05T01:25:47.929Z,984
2017-09-05T01:26:50.038Z,984.1
2017-09-05T01:27:52.210Z,984.1
2017-09-05T01:28:54.756Z,984
2017-09-05T01:29:56.896Z,984.1
2017-09-05T01:30:59.046Z,984.1
2017-09-05T01:32:01.097Z,984.1
2017-09-05T01:33:03.188Z,984.1
2017-09-05T01:34:05.710Z,984.1
2017-09-05T01:35:07.823Z,984.1
2017-09-05T01:36:09.932Z,984.2
2017-09-05T01:37:12.050Z,984.1
2017-09-05T01:38:14.141Z,984.1
2017-09-05T01:39:16.590Z,984.2
2017-09-05T01:40:18.684Z,984.1
2017-09-05T01:41:20.819Z,984.1
2017-09-05T01:42:22.975Z,984.1
2017-09-05T01:43:25.110Z,984.1
2017-09-05T01:44:27.530Z,984
2017-09-05T01:45:29.593Z,984.1
2017-09-05T01:46:31.682Z,984
2017-09-05T01:47:33.745Z,984.1
2017-09-05T01:48:35.791Z,984
2017-09-05T01:49:38.198Z,983.9
2017-09-05T01:50:40.310Z,983.9
2017-09-05T01:51:42.422Z,983.9
2017-09-05T01:52:44.487Z,984
2017-09-05T01:53:46.577Z,983.8
2017-09-05T01:54:49.005Z,983.9
2017-09-05T01:55:51.174Z,983.9
2017-09-05T01:56:53.281Z,983.9
2017-09-05T01:57:55.401Z,983.9
2017-09-05T01:58:57.575Z,983.9
2017-09-05T01:59:59.951Z,983.9
2017-09-05T02:01:02.074Z,983.8
2017-09-05T02:02:04.433Z,983.9
2017-09-05T02:03:06.527Z,983.9
2017-09-05T02:04:08.574Z,983.9
2017-09-05T02:05:11.064Z,983.9
2017-09-05T02:06:13.163Z,983.9
2017-09-05T02:07:15.271Z,983.9
2017-09-05T02:08:17.359Z,984
2017-09-05T02:09:19.453Z,983.9
2017-09-05T02:10:21.906Z,983.9
2017-09-05T02:11:24.004Z,983.9
2017-09-05T02:12:26.050Z,983.9
2017-09-05T02:13:28.211Z,983.9
2017-09-05T02:14:30.320Z,983.8
2017-09-05T02:15:32.793Z,983.8
2017-09-05T02:16:34.840Z,983.8
2017-09-05T02:17:36.929Z,983.8
2017-09-05T02:18:38.983Z,983.8
2017-09-05T02:19:41.106Z,983.9
2017-09-05T02:20:43.555Z,983.9
2017-09-05T02:21:45.639Z,983.9
2017-09-05T02:22:47.750Z,983.9
2017-09-05T02:23:49.810Z,983.9
2017-09-05T02:24:51.928Z,983.9
2017-09-05T02:25:54.304Z,984
2017-09-05T02:26:56.692Z,983.9
2017-09-05T02:27:58.771Z,984
2017-09-05T02:29:00.840Z,983.9
2017-09-05T02:30:03.030Z,983.9
2017-09-05T02:31:05.422Z,983.9
2017-09-05T02:32:07.535Z,984
2017-09-05T02:33:09.617Z,983.9
2017-09-05T02:34:11.754Z,983.9
2017-09-05T02:35:13.834Z,983.9
2017-09-05T02:36:16.239Z,983.8
2017-09-05T02:37:18.285Z,983.8
2017-09-05T02:38:20.338Z,983.8
2017-09-05T02:39:22.434Z,983.8
2017-09-05T02:40:24.605Z,983.9
2017-09-05T02:41:27.065Z,983.9
2017-09-05T02:42:29.141Z,983.8
2017-09-05T02:43:31.237Z,983.9
2017-09-05T02:44:33.282Z,984
2017-09-05T02:45:35.375Z,984
2017-09-05T02:46:37.840Z,983.9
2017-09-05T02:47:39.931Z,983.9
2017-09-05T02:48:42.077Z,983.9
2017-09-05T02:49:44.144Z,984
2017-09-05T02:50:46.226Z,983.8
2017-09-05T02:51:48.804Z,984
2017-09-05T02:52:50.886Z,984
2017-09-05T02:53:52.956Z,983.9
2017-09-05T02:54:55.078Z,983.8
2017-09-05T02:55:57.182Z,983.8
2017-09-05T02:56:59.622Z,983.8
2017-09-05T02:58:01.706Z,983.8
2017-09-05T02:59:03.799Z,983.8
2017-09-05T03:00:05.924Z,983.9
2017-09-05T03:01:07.997Z,984
2017-09-05T03:02:10.456Z,984
2017-09-05T03:03:12.569Z,983.9
2017-09-05T03:04:14.673Z,984.1
2017-09-05T03:05:16.708Z,984.1
2017-09-05T03:06:18.855Z,984
2017-09-05T03:07:21.370Z,984.1
2017-09-05T03:08:23.469Z,984
2017-09-05T03:09:25.559Z,984
2017-09-05T03:10:27.640Z,983.9
2017-09-05T03:11:29.740Z,984
2017-09-05T03:12:32.099Z,984.1
2017-09-05T03:13:34.200Z,984.1
2017-09-05T03:14:36.244Z,984
2017-09-05T03:15:38.341Z,984
2017-09-05T03:16:40.425Z,984
2017-09-05T03:17:42.772Z,984.1
2017-09-05T03:18:44.882Z,984.1
2017-09-05T03:19:46.983Z,984.2
2017-09-05T03:20:49.091Z,984.1
2017-09-05T03:21:51.173Z,984.2
2017-09-05T03:22:53.648Z,984.1
2017-09-05T03:23:55.722Z,984.1
2017-09-05T03:24:57.892Z,984.1
2017-09-05T03:25:59.919Z,984.1
2017-09-05T03:27:02.077Z,984.2
2017-09-05T03:28:04.537Z,984.2
2017-09-05T03:29:06.665Z,984.2
2017-09-05T03:30:08.687Z,984.2
2017-09-05T03:31:10.785Z,984.2
2017-09-05T03:32:12.948Z,984.2
2017-09-05T03:33:15.338Z,984.2
2017-09-05T03:34:17.461Z,984.2
2017-09-05T03:35:19.536Z,984.1
2017-09-05T03:36:21.664Z,984.1
2017-09-05T03:37:23.727Z,984.2
2017-09-05T03:38:26.101Z,984.1
2017-09-05T03:39:28.270Z,984.1
2017-09-05T03:40:30.370Z,984.1
2017-09-05T03:41:32.471Z,984.1
2017-09-05T03:42:34.619Z,984.1
2017-09-05T03:43:37.077Z,984.1
2017-09-05T03:44:39.257Z,984.1
2017-09-05T03:45:41.352Z,984.2
2017-09-05T03:46:43.432Z,984.1
2017-09-05T03:47:45.559Z,984.2
2017-09-05T03:48:48.194Z,984.3
2017-09-05T03:49:50.260Z,984.2
2017-09-05T03:50:52.361Z,984.3
2017-09-05T03:51:54.517Z,984.2
2017-09-05T03:52:56.633Z,984.3
2017-09-05T03:53:59.015Z,984.2
2017-09-05T03:55:01.115Z,984.2
2017-09-05T03:56:03.372Z,984.2
2017-09-05T03:57:05.410Z,984.3
2017-09-05T03:58:07.460Z,984.3
2017-09-05T03:59:09.767Z,984.3
2017-09-05T04:00:12.000Z,984.3
2017-09-05T04:01:14.095Z,984.3
2017-09-05T04:02:16.169Z,984.2
2017-09-05T04:03:18.239Z,984.3
2017-09-05T04:04:20.694Z,984.2
2017-09-05T04:05:22.775Z,984.2
2017-09-05T04:06:24.892Z,984.2
2017-09-05T04:07:27.010Z,984.3
2017-09-05T04:08:29.147Z,984.2
2017-09-05T04:09:31.527Z,984.2
2017-09-05T04:10:33.683Z,984.2
2017-09-05T04:11:35.781Z,984.2
2017-09-05T04:12:38.093Z,984.2
2017-09-05T04:13:40.125Z,984.2
2017-09-05T04:14:42.599Z,984.2
2017-09-05T04:15:44.700Z,984.3
2017-09-05T04:16:46.770Z,984.2
2017-09-05T04:17:48.859Z,984.2
2017-09-05T04:18:50.983Z,984.2
2017-09-05T04:19:53.304Z,984.2
2017-09-05T04:20:55.424Z,984.2
2017-09-05T04:21:57.566Z,984.2
2017-09-05T04:22:59.602Z,984.2
2017-09-05T04:24:01.740Z,984.3
2017-09-05T04:25:04.079Z,984.3
2017-09-05T04:26:06.182Z,984.2
2017-09-05T04:27:08.312Z,984.3
2017-09-05T04:28:10.396Z,984.2
2017-09-05T04:29:12.727Z,984.3
2017-09-05T04:30:15.149Z,984.2
2017-09-05T04:31:17.285Z,984.2
2017-09-05T04:32:19.365Z,984.3
2017-09-05T04:33:21.410Z,984.4
2017-09-05T04:34:23.439Z,984.3
2017-09-05T04:35:25.759Z,984.2
2017-09-05T04:36:27.871Z,984.3
2017-09-05T04:37:29.910Z,984.2
2017-09-05T04:38:32.022Z,984.3
2017-09-05T04:39:34.086Z,984.2
2017-09-05T04:40:36.681Z,984.2
2017-09-05T04:41:38.794Z,984.2
2017-09-05T04:42:40.852Z,984.2
2017-09-05T04:43:42.981Z,984.2
2017-09-05T04:44:45.078Z,984.3
2017-09-05T04:45:47.626Z,984.4
2017-09-05T04:46:49.683Z,984.3
2017-09-05T04:47:51.905Z,984.3
2017-09-05T04:48:54.062Z,984.3
2017-09-05T04:49:56.149Z,984.3
2017-09-05T04:50:58.694Z,984.3
2017-09-05T04:52:00.901Z,984.3
2017-09-05T04:53:03.083Z,984.4
2017-09-05T04:54:05.234Z,984.3
2017-09-05T04:55:07.517Z,984.3
2017-09-05T04:56:09.858Z,984.2
2017-09-05T04:57:11.908Z,984.3
2017-09-05T04:58:14.137Z,984.3
2017-09-05T04:59:16.312Z,984.3
2017-09-05T05:00:18.436Z,984.3
2017-09-05T05:01:20.963Z,984.3
2017-09-05T05:02:23.078Z,984.3
2017-09-05T05:03:25.195Z,984.3
2017-09-05T05:04:27.335Z,984.4
2017-09-05T05:05:29.496Z,984.3
2017-09-05T05:06:32.076Z,984.4
2017-09-05T05:07:34.456Z,984.4
2017-09-05T05:08:36.594Z,984.4
2017-09-05T05:09:38.994Z,984.4
2017-09-05T05:10:41.078Z,984.4
2017-09-05T05:11:43.533Z,984.5
2017-09-05T05:12:45.647Z,984.5
2017-09-05T05:13:48.006Z,984.5
2017-09-05T05:14:50.201Z,984.4
2017-09-05T05:15:52.311Z,984.3
2017-09-05T05:16:54.756Z,984.2
2017-09-05T05:17:56.939Z,984.3
2017-09-05T05:18:59.051Z,984.1
2017-09-05T05:20:01.083Z,984
2017-09-05T05:21:03.227Z,984
2017-09-05T05:22:05.647Z,984
2017-09-05T05:23:07.810Z,984
2017-09-05T05:24:09.966Z,984.1
2017-09-05T05:25:12.029Z,984.1
2017-09-05T05:26:14.246Z,984.1
2017-09-05T05:27:16.718Z,984.2
2017-09-05T05:28:18.879Z,984.2
2017-09-05T05:29:21.016Z,984.2
2017-09-05T05:30:23.105Z,984.3
2017-09-05T05:31:25.215Z,984.5
2017-09-05T05:32:27.704Z,984.5
2017-09-05T05:33:29.719Z,984.6
2017-09-05T05:34:31.813Z,984.5
2017-09-05T05:35:33.892Z,984.4
2017-09-05T05:36:35.924Z,984.5
2017-09-05T05:37:38.351Z,984.4
2017-09-05T05:38:40.474Z,984.5
2017-09-05T05:39:42.629Z,984.6
2017-09-05T05:40:44.695Z,984.7
2017-09-05T05:41:46.852Z,984.9
2017-09-05T05:42:49.326Z,984.9
2017-09-05T05:43:51.447Z,984.9
2017-09-05T05:44:53.567Z,984.9
2017-09-05T05:45:55.666Z,984.9
2017-09-05T05:46:57.706Z,984.9
2017-09-05T05:48:00.086Z,984.8
2017-09-05T05:49:02.139Z,984.8
2017-09-05T05:50:04.232Z,984.6
2017-09-05T05:51:06.370Z,984.6
2017-09-05T05:52:08.505Z,984.5
2017-09-05T05:53:10.871Z,984.6
2017-09-05T05:54:12.966Z,984.5
2017-09-05T05:55:15.071Z,984.6
2017-09-05T05:56:17.197Z,984.6
2017-09-05T05:57:19.261Z,984.6
2017-09-05T05:58:21.693Z,984.6
2017-09-05T05:59:23.753Z,984.7
2017-09-05T06:00:25.820Z,984.7
2017-09-05T06:01:27.859Z,984.6
2017-09-05T06:02:29.932Z,984.7
2017-09-05T06:03:32.358Z,984.7
2017-09-05T06:04:34.410Z,984.7
2017-09-05T06:05:36.545Z,984.7
2017-09-05T06:06:38.654Z,984.8
2017-09-05T06:07:40.820Z,984.7
2017-09-05T06:08:43.949Z,984.7
2017-09-05T06:09:46.081Z,984.7
2017-09-05T06:10:48.263Z,984.6
2017-09-05T06:11:50.401Z,984.7
2017-09-05T06:12:52.602Z,984.7
2017-09-05T06:13:55.215Z,984.7
2017-09-05T06:14:57.376Z,984.7
2017-09-05T06:15:59.531Z,984.6
2017-09-05T06:17:01.664Z,984.6
2017-09-05T06:18:03.850Z,984.6
2017-09-05T06:19:06.246Z,984.7
2017-09-05T06:20:08.414Z,984.7
2017-09-05T06:21:10.582Z,984.7
2017-09-05T06:22:12.658Z,984.7
2017-09-05T06:23:14.709Z,984.7
2017-09-05T06:24:17.092Z,984.7
2017-09-05T06:25:19.304Z,984.7
2017-09-05T06:26:21.483Z,984.6
2017-09-05T06:27:23.666Z,984.6
2017-09-05T06:28:25.920Z,984.7
2017-09-05T06:29:28.407Z,984.7
2017-09-05T06:30:30.498Z,984.7
2017-09-05T06:31:32.602Z,984.8
2017-09-05T06:32:34.671Z,984.7
2017-09-05T06:33:36.811Z,984.7
2017-09-05T06:34:39.290Z,984.7
2017-09-05T06:35:41.431Z,984.8
2017-09-05T06:36:43.496Z,984.8
2017-09-05T06:37:45.621Z,984.8
2017-09-05T06:38:48.528Z,984.7
2017-09-05T06:39:51.015Z,984.7
2017-09-05T06:40:53.112Z,984.7
2017-09-05T06:41:55.306Z,984.7
2017-09-05T06:42:57.455Z,984.8
2017-09-05T06:43:59.573Z,984.7
2017-09-05T06:45:01.994Z,984.7
2017-09-05T06:46:04.099Z,984.7
2017-09-05T06:47:06.276Z,984.6
2017-09-05T06:48:09.846Z,984.6
2017-09-05T06:49:11.967Z,984.7
2017-09-05T06:50:16.144Z,984.8
2017-09-05T06:51:18.310Z,984.7
2017-09-05T06:52:20.405Z,984.8
2017-09-05T06:53:22.525Z,984.8
2017-09-05T06:54:24.731Z,984.8
2017-09-05T06:55:27.088Z,984.7
2017-09-05T06:56:29.232Z,984.8
2017-09-05T06:57:31.503Z,984.7
2017-09-05T06:58:33.632Z,984.8
2017-09-05T06:59:35.828Z,984.8
2017-09-05T07:00:38.395Z,984.7
2017-09-05T07:01:40.510Z,984.7
2017-09-05T07:02:42.614Z,984.7
2017-09-05T07:03:44.823Z,984.7
2017-09-05T07:04:47.028Z,984.7
2017-09-05T07:05:49.605Z,984.6
2017-09-05T07:06:51.834Z,984.7
2017-09-05T07:07:54.061Z,984.7
2017-09-05T07:08:56.343Z,984.7
2017-09-05T07:09:58.406Z,984.8
2017-09-05T07:11:00.861Z,984.7
2017-09-05T07:12:02.975Z,984.8
2017-09-05T07:13:05.108Z,984.8
2017-09-05T07:14:07.253Z,984.8
2017-09-05T07:15:09.335Z,984.8
2017-09-05T07:16:11.850Z,984.7
2017-09-05T07:17:14.060Z,984.7
2017-09-05T07:18:16.189Z,984.8
2017-09-05T07:19:18.314Z,984.7
2017-09-05T07:20:20.542Z,984.8
2017-09-05T07:21:23.294Z,984.8
2017-09-05T07:22:25.559Z,984.7
2017-09-05T07:23:27.746Z,984.7
2017-09-05T07:24:29.861Z,984.6
2017-09-05T07:25:31.970Z,984.6
2017-09-05T07:26:34.349Z,984.6
2017-09-05T07:27:36.488Z,984.6
2017-09-05T07:28:38.621Z,984.8
2017-09-05T07:29:40.720Z,984.6
2017-09-05T07:30:42.915Z,984.7
2017-09-05T07:31:45.367Z,984.7
2017-09-05T07:32:47.494Z,984.6
2017-09-05T07:33:50.289Z,984.7
2017-09-05T07:34:52.429Z,984.6
2017-09-05T07:35:54.619Z,984.7
2017-09-05T07:36:56.801Z,984.7
2017-09-05T07:37:58.980Z,984.6
2017-09-05T07:39:01.183Z,984.8
2017-09-05T07:40:03.347Z,984.8
2017-09-05T07:41:05.590Z,984.8
2017-09-05T07:42:07.735Z,984.7
2017-09-05T07:43:09.874Z,984.7
2017-09-05T07:44:12.288Z,984.7
2017-09-05T07:45:14.416Z,984.8
2017-09-05T07:46:16.570Z,984.8
2017-09-05T07:47:18.684Z,984.8
2017-09-05T07:48:20.777Z,984.9
2017-09-05T07:49:22.893Z,984.8
2017-09-05T07:50:25.022Z,984.8
2017-09-05T07:51:27.183Z,984.8
2017-09-05T07:52:29.330Z,984.8
2017-09-05T07:53:31.418Z,984.8
2017-09-05T07:54:33.646Z,984.8
2017-09-05T07:55:35.752Z,984.8
2017-09-05T07:56:37.801Z,984.7
2017-09-05T07:57:40.205Z,984.6
2017-09-05T07:58:42.245Z,984.7
2017-09-05T07:59:44.367Z,984.7
2017-09-05T08:00:46.475Z,984.7
2017-09-05T08:01:48.539Z,984.7
2017-09-05T08:02:50.935Z,984.8
2017-09-05T08:03:53.101Z,984.7
2017-09-05T08:04:55.322Z,984.8
2017-09-05T08:05:57.465Z,984.8
2017-09-05T08:06:59.550Z,984.8
2017-09-05T08:08:02.000Z,984.8
2017-09-05T08:09:04.124Z,984.8
2017-09-05T08:10:06.243Z,984.7
2017-09-05T08:11:08.455Z,984.8
2017-09-05T08:12:10.543Z,984.8
2017-09-05T08:13:12.949Z,984.9
2017-09-05T08:14:15.076Z,984.8
2017-09-05T08:15:17.144Z,984.8
2017-09-05T08:16:19.354Z,984.7
2017-09-05T08:17:21.567Z,984.8
2017-09-05T08:18:23.940Z,984.7
2017-09-05T08:19:26.194Z,984.8
2017-09-05T08:20:28.446Z,984.9
2017-09-05T08:21:30.557Z,984.9
2017-09-05T08:22:32.684Z,984.8
2017-09-05T08:23:35.094Z,984.8
2017-09-05T08:24:37.194Z,984.8
2017-09-05T08:25:39.266Z,984.8
2017-09-05T08:26:41.368Z,984.8
2017-09-05T08:27:43.443Z,984.9
2017-09-05T08:28:45.928Z,984.8
2017-09-05T08:29:48.100Z,984.9
2017-09-05T08:30:50.278Z,984.8
2017-09-05T08:31:52.439Z,985
2017-09-05T08:32:54.540Z,984.9
2017-09-05T08:33:57.077Z,984.9
2017-09-05T08:34:59.158Z,984.8
2017-09-05T08:36:01.303Z,984.9
2017-09-05T08:37:03.423Z,984.9
2017-09-05T08:38:05.578Z,984.9
2017-09-05T08:39:08.034Z,984.9
2017-09-05T08:40:10.105Z,984.8
2017-09-05T08:41:12.284Z,984.8
2017-09-05T08:42:14.430Z,984.8
2017-09-05T08:43:16.598Z,984.9
2017-09-05T08:44:19.065Z,985
2017-09-05T08:45:21.217Z,985
2017-09-05T08:46:23.322Z,985
2017-09-05T08:47:25.456Z,985
2017-09-05T08:48:27.502Z,985
2017-09-05T08:49:29.936Z,985
2017-09-05T08:50:32.040Z,985
2017-09-05T08:51:34.106Z,984.9
2017-09-05T08:52:36.293Z,984.9
2017-09-05T08:53:38.373Z,984.9
2017-09-05T08:54:40.816Z,984.8
2017-09-05T08:55:42.940Z,984.9
2017-09-05T08:56:45.149Z,984.9
2017-09-05T08:57:47.313Z,984.9
2017-09-05T08:58:49.463Z,984.9
2017-09-05T08:59:51.927Z,984.8
2017-09-05T09:00:54.051Z,984.7
2017-09-05T09:01:56.172Z,984.7
2017-09-05T09:02:58.280Z,984.8
2017-09-05T09:04:00.376Z,984.8
2017-09-05T09:05:02.517Z,984.8
2017-09-05T09:06:04.647Z,984.8
2017-09-05T09:07:06.745Z,984.7
2017-09-05T09:08:08.846Z,984.6
2017-09-05T09:09:10.918Z,984.8
2017-09-05T09:10:13.298Z,984.7
2017-09-05T09:11:15.459Z,984.9
2017-09-05T09:12:17.525Z,984.7
2017-09-05T09:13:19.760Z,984.6
2017-09-05T09:14:21.892Z,984.5
2017-09-05T09:15:24.404Z,984.6
2017-09-05T09:16:26.594Z,984.6
2017-09-05T09:17:28.722Z,984.4
2017-09-05T09:18:30.848Z,984.6
2017-09-05T09:19:32.929Z,984.7
2017-09-05T09:20:35.298Z,984.7
2017-09-05T09:21:37.441Z,984.7
2017-09-05T09:22:39.632Z,984.6
2017-09-05T09:23:41.838Z,984.6
2017-09-05T09:24:44.004Z,984.6
2017-09-05T09:25:46.449Z,984.6
2017-09-05T09:26:48.637Z,984.8
2017-09-05T09:27:50.764Z,984.7
2017-09-05T09:28:52.921Z,984.7
2017-09-05T09:29:55.023Z,984.7
2017-09-05T09:30:57.422Z,984.7
2017-09-05T09:31:59.650Z,984.6
2017-09-05T09:33:01.792Z,984.7
2017-09-05T09:34:03.919Z,984.8
2017-09-05T09:35:06.129Z,984.7
2017-09-05T09:36:08.546Z,984.8
2017-09-05T09:37:10.653Z,984.9
2017-09-05T09:38:12.805Z,984.7
2017-09-05T09:39:14.977Z,984.7
2017-09-05T09:40:17.083Z,984.8
2017-09-05T09:41:19.487Z,984.8
2017-09-05T09:42:21.567Z,984.8
2017-09-05T09:43:23.669Z,984.7
2017-09-05T09:44:25.858Z,984.8
2017-09-05T09:45:27.917Z,984.9
2017-09-05T09:46:30.296Z,984.7
2017-09-05T09:47:32.359Z,984.7
2017-09-05T09:48:34.452Z,984.6
2017-09-05T09:49:36.588Z,984.8
2017-09-05T09:50:38.839Z,984.9
2017-09-05T09:51:41.122Z,984.7
2017-09-05T09:52:43.263Z,984.7
2017-09-05T09:53:45.386Z,984.8
2017-09-05T09:54:47.470Z,984.8
2017-09-05T09:55:49.586Z,984.9
2017-09-05T09:56:51.782Z,984.9
2017-09-05T09:57:53.915Z,984.8
2017-09-05T09:58:56.112Z,984.8
2017-09-05T09:59:58.277Z,984.8
2017-09-05T10:01:00.375Z,984.9
2017-09-05T10:02:02.879Z,984.9
2017-09-05T10:03:05.005Z,984.9
2017-09-05T10:04:07.149Z,984.9
2017-09-05T10:05:09.369Z,984.8
2017-09-05T10:06:11.438Z,984.9
2017-09-05T10:07:13.788Z,984.7
2017-09-05T10:08:16.411Z,984.7
2017-09-05T10:09:18.555Z,984.8
2017-09-05T10:10:20.655Z,984.8
2017-09-05T10:11:22.914Z,984.9
2017-09-05T10:12:25.323Z,984.5
2017-09-05T10:13:27.465Z,984.6
2017-09-05T10:14:29.551Z,984.6
2017-09-05T10:15:31.708Z,984.8
2017-09-05T10:16:33.804Z,984.9
2017-09-05T10:17:36.290Z,984.7
2017-09-05T10:18:38.495Z,984.7
2017-09-05T10:19:40.676Z,984.8
2017-09-05T10:20:42.799Z,984.8
2017-09-05T10:21:45.128Z,984.9
2017-09-05T10:22:47.514Z,984.8
2017-09-05T10:23:49.663Z,984.6
2017-09-05T10:24:51.788Z,984.6
2017-09-05T10:25:53.932Z,984.5
2017-09-05T10:26:56.074Z,984.7
2017-09-05T10:27:58.498Z,984.6
2017-09-05T10:29:00.587Z,984.6
2017-09-05T10:30:02.761Z,984.5
2017-09-05T10:31:04.910Z,984.7
2017-09-05T10:32:07.065Z,984.6
2017-09-05T10:33:09.614Z,984.6
2017-09-05T10:34:11.715Z,984.5
2017-09-05T10:35:13.797Z,984.4
2017-09-05T10:36:15.927Z,984.4
2017-09-05T10:37:18.142Z,984.5
2017-09-05T10:38:20.550Z,984.6
2017-09-05T10:39:22.667Z,984.6
2017-09-05T10:40:25.023Z,984.4
2017-09-05T10:41:27.165Z,984.3
2017-09-05T10:42:29.265Z,984.4
2017-09-05T10:43:31.707Z,984.5
2017-09-05T10:44:33.894Z,984.4
2017-09-05T10:45:35.967Z,984.4
2017-09-05T10:46:38.105Z,984.4
2017-09-05T10:47:40.207Z,984.3
2017-09-05T10:48:42.691Z,984.4
2017-09-05T10:49:44.747Z,984.3
2017-09-05T10:50:46.833Z,984.4
2017-09-05T10:51:49.091Z,984.3
2017-09-05T10:52:51.270Z,984.2
2017-09-05T10:53:53.813Z,984.3
2017-09-05T10:54:55.919Z,984.3
2017-09-05T10:55:58.041Z,984.4
2017-09-05T10:57:00.208Z,984.4
2017-09-05T10:58:02.434Z,984.4
2017-09-05T10:59:04.829Z,984.4
2017-09-05T11:00:06.963Z,984.2
2017-09-05T11:01:09.136Z,984.1
2017-09-05T11:02:11.287Z,984.2
2017-09-05T11:03:13.413Z,984.2
2017-09-05T11:04:15.804Z,984.2
2017-09-05T11:05:17.897Z,984.1
2017-09-05T11:06:20.005Z,984.2
2017-09-05T11:07:22.267Z,984.1
2017-09-05T11:08:24.429Z,984.1
2017-09-05T11:09:26.911Z,984.1
2017-09-05T11:10:29.029Z,984.2
2017-09-05T11:11:31.073Z,984.2
2017-09-05T11:12:33.180Z,984.3
2017-09-05T11:13:35.484Z,984.2
2017-09-05T11:14:37.853Z,984.2
2017-09-05T11:15:40.061Z,984.3
2017-09-05T11:16:42.282Z,984.2
2017-09-05T11:17:44.470Z,984.2
2017-09-05T11:18:46.564Z,984.2
2017-09-05T11:19:49.021Z,984.3
2017-09-05T11:20:51.244Z,984.3
2017-09-05T11:21:53.359Z,983.9
2017-09-05T11:22:56.180Z,984
2017-09-05T11:23:58.253Z,984.1
2017-09-05T11:25:00.783Z,984.2
2017-09-05T11:26:03.010Z,984.2
2017-09-05T11:27:05.145Z,984.2
2017-09-05T11:28:07.273Z,984.1
2017-09-05T11:29:09.383Z,984.2
2017-09-05T11:30:11.873Z,984.2
2017-09-05T11:31:14.017Z,984.2
2017-09-05T11:32:16.149Z,984.2
2017-09-05T11:33:18.258Z,984.3
2017-09-05T11:34:20.346Z,984.4
2017-09-05T11:35:22.743Z,984.2
2017-09-05T11:36:24.889Z,984.3
2017-09-05T11:37:27.036Z,984.2
2017-09-05T11:38:29.164Z,984.2
2017-09-05T11:39:31.315Z,984.2
2017-09-05T11:40:33.754Z,984.2
2017-09-05T11:41:35.860Z,984.3
2017-09-05T11:42:38.037Z,984.2
2017-09-05T11:43:40.193Z,984.2
2017-09-05T11:44:42.278Z,984.2
2017-09-05T11:45:44.438Z,984
2017-09-05T11:46:46.620Z,983.9
2017-09-05T11:47:48.835Z,984
2017-09-05T11:48:50.992Z,984.1
2017-09-05T11:49:53.188Z,984.2
2017-09-05T11:50:55.316Z,984.1
2017-09-05T11:51:57.444Z,984.1
2017-09-05T11:52:59.573Z,984.1
2017-09-05T11:54:01.766Z,984.1
2017-09-05T11:55:03.996Z,984.1
2017-09-05T11:56:06.530Z,983.9
2017-09-05T11:57:08.620Z,983.9
2017-09-05T11:58:10.954Z,984
2017-09-05T11:59:13.280Z,984
2017-09-05T12:00:15.411Z,984
2017-09-05T12:01:17.805Z,984
2017-09-05T12:02:19.952Z,984
2017-09-05T12:03:22.134Z,984
2017-09-05T12:04:24.330Z,983.9
2017-09-05T12:05:26.479Z,983.9
2017-09-05T12:06:29.000Z,984
2017-09-05T12:07:31.203Z,984
2017-09-05T12:08:33.316Z,984
2017-09-05T12:09:35.437Z,984
2017-09-05T12:10:37.644Z,984.1
2017-09-05T12:11:40.072Z,984.1
2017-09-05T12:12:42.190Z,984.1
2017-09-05T12:13:44.330Z,984
2017-09-05T12:14:46.668Z,984.1
2017-09-05T12:15:48.775Z,984
2017-09-05T12:16:51.168Z,983.9
2017-09-05T12:17:53.253Z,984
2017-09-05T12:18:55.390Z,983.9
2017-09-05T12:19:57.483Z,984
2017-09-05T12:20:59.644Z,984
2017-09-05T12:22:02.018Z,983.9
2017-09-05T12:23:04.092Z,983.9
2017-09-05T12:24:06.231Z,984
2017-09-05T12:25:08.371Z,984.1
2017-09-05T12:26:10.486Z,984.1
2017-09-05T12:27:12.889Z,984
2017-09-05T12:28:15.043Z,983.9
2017-09-05T12:29:17.207Z,984
2017-09-05T12:30:19.351Z,984
2017-09-05T12:31:21.465Z,984.1
2017-09-05T12:32:24.075Z,984
2017-09-05T12:33:26.145Z,983.9
2017-09-05T12:34:28.321Z,984
2017-09-05T12:35:30.374Z,984
2017-09-05T12:36:32.524Z,984
2017-09-05T12:37:34.990Z,983.8
2017-09-05T12:38:37.129Z,983.8
2017-09-05T12:39:39.300Z,983.6
2017-09-05T12:40:41.475Z,983.8
2017-09-05T12:41:43.562Z,983.8
2017-09-05T12:42:45.952Z,983.6
2017-09-05T12:43:48.044Z,983.4
2017-09-05T12:44:50.199Z,983.6
2017-09-05T12:45:52.380Z,983.7
2017-09-05T12:46:54.518Z,983.7
2017-09-05T12:47:56.924Z,983.6
2017-09-05T12:48:59.042Z,983.3
2017-09-05T12:50:01.139Z,983.4
2017-09-05T12:51:03.265Z,983.4
2017-09-05T12:52:05.376Z,983.4
2017-09-05T12:53:07.824Z,983.5
2017-09-05T12:54:09.901Z,983.5
2017-09-05T12:55:12.061Z,983.5
2017-09-05T12:56:14.184Z,983.5
2017-09-05T12:57:16.348Z,983.6
2017-09-05T12:58:18.732Z,983.5
2017-09-05T12:59:20.853Z,983.5
2017-09-05T13:00:22.973Z,983.6
2017-09-05T13:01:25.090Z,983.5
2017-09-05T13:02:27.242Z,983.5
2017-09-05T13:03:29.628Z,983.4
2017-09-05T13:04:31.826Z,983.4
2017-09-05T13:05:34.037Z,983.3
2017-09-05T13:06:36.178Z,983.3
2017-09-05T13:07:38.285Z,983.4
2017-09-05T13:08:40.817Z,983.4
2017-09-05T13:09:42.963Z,983.3
2017-09-05T13:10:45.133Z,983.5
2017-09-05T13:11:47.341Z,983.4
2017-09-05T13:12:49.470Z,983.3
2017-09-05T13:13:52.008Z,983.4
2017-09-05T13:14:54.173Z,983.4
2017-09-05T13:15:56.364Z,983.4
2017-09-05T13:16:58.595Z,983.3
2017-09-05T13:18:00.813Z,983.3
2017-09-05T13:19:03.193Z,983.3
2017-09-05T13:20:05.310Z,983.2
2017-09-05T13:21:07.441Z,983.1
2017-09-05T13:22:09.581Z,983.2
2017-09-05T13:23:11.813Z,983.2
2017-09-05T13:24:14.432Z,983.2
2017-09-05T13:25:16.624Z,983.2